Time,TemperatureF,DewpointF,PressureIn,WindDirection,WindDirectionDegrees,WindSpeedMPH,WindSpeedGustMPH,Humidity,HourlyPrecipIn,Conditions,Clouds,dailyrainin,SoftwareType,DateUTC
2013-10-21 00:04:00,76.1,73.0,29.98,East,98,0.0,1.0,90,0.00,,,0.00,weatherlink.com 1.10,2013-10-21 04:04:00,
2013-10-21 00:19:00,75.8,73.0,29.97,East,98,0.0,0.0,91,0.00,,,0.00,weatherlink.com 1.10,2013-10-21 04:19:00,
2013-10-21 00:35:00,75.5,73.0,29.97,East,98,0.0,0.0,91,0.00,,,0.00,weatherlink.com 1.10,2013-10-21 04:35:00,
2013-10-21 00:50:00,75.1,73.0,29.97,East,98,0.0,1.0,92,0.00,,,0.00,weatherlink.com 1.10,2013-10-21 04:50:00,
2013-10-21 01:05:00,74.8,72.0,29.97,East,98,0.0,1.0,92,0.00,,,0.00,weatherlink.com 1.10,2013-10-21 05:05:00,
2013-10-21 01:20:00,74.5,72.0,29.96,East,98,0.0,0.0,92,0.00,,,0.00,weatherlink.com 1.10,2013-10-21 05:20:00,
2013-10-21 01:35:00,74.1,72.0,29.96,East,98,0.0,0.0,93,0.00,,,0.00,weatherlink.com 1.10,2013-10-21 05:35:00,
2013-10-21 01:50:00,73.8,72.0,29.96,East,98,0.0,1.0,93,0.00,,,0.00,weatherlink.com 1.10,2013-10-21 05:50:00,
2013-10-21 02:05:00,73.5,72.0,29.96,East,98,0.0,1.0,94,0.00,,,0.00,weatherlink.com 1.10,2013-10-21 06:05:00,
2013-10-21 02:20:00,73.1,71.0,29.96,East,98,0.0,0.0,94,0.00,,,0.00,weatherlink.com 1.10,2013-10-21 06:20:00,
2013-10-21 02:35:00,72.8,71.0,29.96,East,98,0.0,1.0,94,0.00,,,0.00,weatherlink.com 1.10,2013-10-21 06:35:00,
2013-10-21 02:50:00,72.6,71.0,29.95,East,98,0.0,1.0,95,0.00,,,0.00,weatherlink.com 1.10,2013-10-21 06:50:00,
2013-10-21 03:05:00,72.3,71.0,29.95,East,98,0.0,1.0,95,0.00,,,0.00,weatherlink.com 1.10,2013-10-21 07:05:00,
2013-10-21 03:20:00,72.1,71.0,29.95,East,98,0.0,0.0,95,0.00,,,0.00,weatherlink.com 1.10,2013-10-21 07:20:00,
2013-10-21 03:35:00,71.8,71.0,29.95,East,98,0.0,0.0,96,0.00,,,0.00,weatherlink.com 1.10,2013-10-21 07:35:00,
2013-10-21 03:50:00,71.5,70.0,29.95,East,98,0.0,0.0,96,0.00,,,0.00,weatherlink.com 1.10,2013-10-21 07:50:00,
2013-10-21 04:05:00,71.3,70.0,29.95,East,98,0.0,0.0,96,0.00,,,0.00,weatherlink.com 1.10,2013-10-21 08:05:00,
2013-10-21 04:20:00,71.1,70.0,29.95,East,98,0.0,0.0,96,0.00,,,0.00,weatherlink.com 1.10,2013-10-21 08:20:00,
2013-10-21 04:35:00,70.9,70.0,29.95,East,98,0.0,0.0,96,0.00,,,0.00,weatherlink.com 1.10,2013-10-21 08:35:00,
2013-10-21 04:50:00,70.7,70.0,29.95,East,98,0.0,0.0,96,0.00,,,0.00,weatherlink.com 1.10,2013-10-21 08:50:00,
2013-10-21 05:05:00,70.7,70.0,29.95,East,98,0.0,1.0,96,0.00,,,0.00,weatherlink.com 1.10,2013-10-21 09:05:00,
2013-10-21 05:20:00,70.6,70.0,29.95,East,98,0.0,0.0,97,0.00,,,0.00,weatherlink.com 1.10,2013-10-21 09:20:00,
2013-10-21 05:35:00,70.4,70.0,29.96,East,98,0.0,0.0,97,0.00,,,0.00,weatherlink.com 1.10,2013-10-21 09:35:00,
2013-10-21 05:50:00,70.3,69.0,29.96,East,98,0.0,0.0,97,0.00,,,0.00,weatherlink.com 1.10,2013-10-21 09:50:00,
2013-10-21 06:05:00,70.2,69.0,29.96,East,98,0.0,0.0,97,0.00,,,0.00,weatherlink.com 1.10,2013-10-21 10:05:00,
2013-10-21 06:20:00,70.0,69.0,29.97,East,98,0.0,0.0,97,0.00,,,0.00,weatherlink.com 1.10,2013-10-21 10:20:00,
2013-10-21 06:35:00,70.1,69.0,29.97,East,98,0.0,0.0,97,0.00,,,0.00,weatherlink.com 1.10,2013-10-21 10:35:00,
2013-10-21 06:50:00,70.3,70.0,29.97,East,98,0.0,1.0,98,0.00,,,0.00,weatherlink.com 1.10,2013-10-21 10:50:00,
2013-10-21 07:05:00,70.7,70.0,29.97,East,98,0.0,0.0,98,0.00,,,0.00,weatherlink.com 1.10,2013-10-21 11:05:00,
2013-10-21 07:20:00,71.1,71.0,29.98,East,98,0.0,0.0,98,0.00,,,0.00,weatherlink.com 1.10,2013-10-21 11:20:00,
2013-10-21 07:35:00,71.3,71.0,29.98,East,98,0.0,0.0,98,0.00,,,0.00,weatherlink.com 1.10,2013-10-21 11:35:00,
2013-10-21 07:50:00,71.6,71.0,29.98,East,98,0.0,0.0,98,0.00,,,0.00,weatherlink.com 1.10,2013-10-21 11:50:00,
2013-10-21 08:05:00,71.7,71.0,29.98,East,98,0.0,0.0,99,0.00,,,0.00,weatherlink.com 1.10,2013-10-21 12:05:00,
2013-10-21 08:20:00,72.1,72.0,29.99,East,98,0.0,0.0,99,0.00,,,0.00,weatherlink.com 1.10,2013-10-21 12:20:00,
2013-10-21 08:35:00,72.5,72.0,29.99,East,98,0.0,0.0,99,0.00,,,0.00,weatherlink.com 1.10,2013-10-21 12:35:00,
2013-10-21 08:50:00,73.2,73.0,29.99,East,98,0.0,0.0,99,0.00,,,0.00,weatherlink.com 1.10,2013-10-21 12:50:00,
2013-10-21 09:05:00,73.7,73.0,30.00,East,96,0.0,1.0,99,0.00,,,0.00,weatherlink.com 1.10,2013-10-21 13:05:00,
2013-10-21 09:21:00,74.0,74.0,30.00,NNE,26,0.0,0.0,99,0.00,,,0.00,weatherlink.com 1.10,2013-10-21 13:21:00,
2013-10-21 09:36:00,74.8,75.0,30.00,NNE,26,0.0,0.0,99,0.00,,,0.00,weatherlink.com 1.10,2013-10-21 13:36:00,
2013-10-21 09:51:00,75.3,75.0,30.01,NNE,26,0.0,0.0,99,0.00,,,0.00,weatherlink.com 1.10,2013-10-21 13:51:00,
2013-10-21 10:06:00,75.9,76.0,30.01,NNE,26,0.0,0.0,99,0.00,,,0.00,weatherlink.com 1.10,2013-10-21 14:06:00,
2013-10-21 10:21:00,76.7,76.0,30.01,NNE,26,0.0,1.0,98,0.00,,,0.00,weatherlink.com 1.10,2013-10-21 14:21:00,
2013-10-21 10:36:00,77.3,76.0,30.01,NNE,26,0.0,1.0,96,0.00,,,0.00,weatherlink.com 1.10,2013-10-21 14:36:00,
2013-10-21 10:51:00,78.5,77.0,30.01,NW,320,0.0,5.0,96,0.00,,,0.00,weatherlink.com 1.10,2013-10-21 14:51:00,
2013-10-21 11:06:00,80.1,78.0,30.01,NW,323,0.0,4.0,93,0.00,,,0.00,weatherlink.com 1.10,2013-10-21 15:06:00,
2013-10-21 11:21:00,81.3,78.0,30.01,SSW,210,0.0,4.0,89,0.00,,,0.00,weatherlink.com 1.10,2013-10-21 15:21:00,
2013-10-21 11:36:00,81.6,78.0,30.01,SW,229,0.0,5.0,89,0.00,,,0.00,weatherlink.com 1.10,2013-10-21 15:36:00,
2013-10-21 11:51:00,82.5,78.0,30.01,WSW,240,0.0,7.0,87,0.00,,,0.00,weatherlink.com 1.10,2013-10-21 15:51:00,
2013-10-21 12:06:00,83.0,79.0,30.00,SW,234,0.0,5.0,86,0.00,,,0.00,weatherlink.com 1.10,2013-10-21 16:06:00,
2013-10-21 12:21:00,83.6,78.0,30.00,West,279,0.0,7.0,84,0.00,,,0.00,weatherlink.com 1.10,2013-10-21 16:21:00,
2013-10-21 12:36:00,84.2,79.0,30.00,West,281,0.0,8.0,83,0.00,,,0.00,weatherlink.com 1.10,2013-10-21 16:36:00,
2013-10-21 12:51:00,83.9,79.0,29.99,SSW,208,0.0,7.0,84,0.00,,,0.00,weatherlink.com 1.10,2013-10-21 16:51:00,
2013-10-21 13:06:00,84.6,79.0,29.99,SW,215,4.0,8.0,82,0.00,,,0.00,weatherlink.com 1.10,2013-10-21 17:06:00,
2013-10-21 13:21:00,85.4,80.0,29.98,WSW,258,0.0,7.0,83,0.00,,,0.00,weatherlink.com 1.10,2013-10-21 17:21:00,
2013-10-21 13:36:00,86.5,80.0,29.97,SSW,213,1.0,6.0,80,0.00,,,0.00,weatherlink.com 1.10,2013-10-21 17:36:00,
2013-10-21 13:51:00,86.7,79.0,29.96,SW,217,0.0,6.0,78,0.00,,,0.00,weatherlink.com 1.10,2013-10-21 17:51:00,
2013-10-21 14:06:00,87.5,79.0,29.96,South,189,0.0,7.0,76,0.00,,,0.00,weatherlink.com 1.10,2013-10-21 18:06:00,
2013-10-21 14:22:00,88.1,78.0,29.95,SSW,202,4.0,9.0,71,0.00,,,0.00,weatherlink.com 1.10,2013-10-21 18:22:00,
2013-10-21 14:37:00,88.5,78.0,29.95,SW,228,1.0,5.0,71,0.00,,,0.00,weatherlink.com 1.10,2013-10-21 18:37:00,
2013-10-21 14:52:00,88.8,77.0,29.94,NW,315,1.0,10.0,69,0.00,,,0.00,weatherlink.com 1.10,2013-10-21 18:52:00,
2013-10-21 15:07:00,88.4,78.0,29.94,NW,311,0.0,4.0,70,0.00,,,0.00,weatherlink.com 1.10,2013-10-21 19:07:00,
2013-10-21 15:22:00,88.9,78.0,29.93,SSW,204,2.0,8.0,71,0.00,,,0.00,weatherlink.com 1.10,2013-10-21 19:22:00,
2013-10-21 15:37:00,88.8,77.0,29.93,NNW,337,1.0,8.0,68,0.00,,,0.00,weatherlink.com 1.10,2013-10-21 19:37:00,
2013-10-21 15:52:00,88.5,78.0,29.92,West,266,0.0,7.0,71,0.00,,,0.00,weatherlink.com 1.10,2013-10-21 19:52:00,
2013-10-21 16:07:00,89.3,78.0,29.92,WNW,282,0.0,5.0,70,0.00,,,0.00,weatherlink.com 1.10,2013-10-21 20:07:00,
2013-10-21 16:38:00,90.3,78.0,29.92,NW,317,0.0,4.0,67,0.00,,,0.00,weatherlink.com 1.10,2013-10-21 20:38:00,
2013-10-21 16:53:00,90.4,77.0,29.92,NW,317,0.0,4.0,65,0.00,,,0.00,weatherlink.com 1.10,2013-10-21 20:53:00,
2013-10-21 17:08:00,90.6,76.0,29.92,WNW,302,0.0,1.0,63,0.00,,,0.00,weatherlink.com 1.10,2013-10-21 21:08:00,
2013-10-21 17:22:00,90.5,75.0,29.92,WNW,287,3.0,5.0,61,0.00,,,0.00,weatherlink.com 1.10,2013-10-21 21:22:00,
2013-10-21 17:37:00,90.0,74.0,29.92,West,280,0.0,5.0,60,0.00,,,0.00,weatherlink.com 1.10,2013-10-21 21:37:00,
2013-10-21 17:53:00,89.3,75.0,29.93,West,279,0.0,1.0,63,0.00,,,0.00,weatherlink.com 1.10,2013-10-21 21:53:00,
2013-10-21 18:08:00,89.0,75.0,29.92,West,279,0.0,1.0,63,0.00,,,0.00,weatherlink.com 1.10,2013-10-21 22:08:00,
2013-10-21 18:23:00,87.6,75.0,29.93,West,279,0.0,0.0,67,0.00,,,0.00,weatherlink.com 1.10,2013-10-21 22:23:00,
2013-10-21 18:38:00,85.8,76.0,29.93,West,279,0.0,0.0,72,0.00,,,0.00,weatherlink.com 1.10,2013-10-21 22:38:00,
2013-10-21 18:53:00,83.6,76.0,29.93,West,278,1.0,3.0,77,0.00,,,0.00,weatherlink.com 1.10,2013-10-21 22:53:00,
2013-10-21 19:08:00,82.1,75.0,29.93,West,278,0.0,1.0,79,0.00,,,0.00,weatherlink.com 1.10,2013-10-21 23:08:00,
2013-10-21 19:23:00,80.8,75.0,29.93,West,278,0.0,1.0,81,0.00,,,0.00,weatherlink.com 1.10,2013-10-21 23:23:00,
2013-10-21 19:38:00,79.8,74.0,29.94,West,278,0.0,1.0,82,0.00,,,0.00,weatherlink.com 1.10,2013-10-21 23:38:00,
2013-10-21 19:53:00,78.9,73.0,29.95,West,278,0.0,1.0,83,0.00,,,0.00,weatherlink.com 1.10,2013-10-21 23:53:00,
2013-10-21 20:08:00,78.1,73.0,29.95,West,278,0.0,0.0,85,0.00,,,0.00,weatherlink.com 1.10,2013-10-22 00:08:00,
2013-10-21 20:23:00,77.4,73.0,29.95,West,278,0.0,1.0,87,0.00,,,0.00,weatherlink.com 1.10,2013-10-22 00:23:00,
2013-10-21 20:38:00,76.8,73.0,29.96,West,278,0.0,0.0,87,0.00,,,0.00,weatherlink.com 1.10,2013-10-22 00:38:00,
2013-10-21 20:54:00,76.3,73.0,29.96,West,278,0.0,0.0,88,0.00,,,0.00,weatherlink.com 1.10,2013-10-22 00:54:00,
2013-10-21 21:09:00,75.8,72.0,29.97,West,278,0.0,0.0,89,0.00,,,0.00,weatherlink.com 1.10,2013-10-22 01:09:00,
2013-10-21 21:24:00,75.3,72.0,29.97,West,278,0.0,0.0,90,0.00,,,0.00,weatherlink.com 1.10,2013-10-22 01:24:00,
2013-10-21 21:39:00,74.8,72.0,29.97,West,278,0.0,0.0,91,0.00,,,0.00,weatherlink.com 1.10,2013-10-22 01:39:00,
2013-10-21 21:54:00,74.5,72.0,29.97,West,278,0.0,0.0,92,0.00,,,0.00,weatherlink.com 1.10,2013-10-22 01:54:00,
2013-10-21 22:09:00,74.2,72.0,29.97,West,278,0.0,1.0,92,0.00,,,0.00,weatherlink.com 1.10,2013-10-22 02:09:00,
2013-10-21 22:24:00,73.9,72.0,29.97,West,278,0.0,0.0,92,0.00,,,0.00,weatherlink.com 1.10,2013-10-22 02:24:00,
2013-10-21 22:39:00,73.6,72.0,29.97,West,278,0.0,1.0,93,0.00,,,0.00,weatherlink.com 1.10,2013-10-22 02:39:00,
2013-10-21 22:54:00,73.4,71.0,29.97,West,278,0.0,0.0,93,0.00,,,0.00,weatherlink.com 1.10,2013-10-22 02:54:00,
2013-10-21 23:10:00,73.1,71.0,29.97,West,278,0.0,0.0,94,0.00,,,0.00,weatherlink.com 1.10,2013-10-22 03:10:00,
2013-10-21 23:25:00,72.8,71.0,29.96,West,278,0.0,0.0,93,0.00,,,0.00,weatherlink.com 1.10,2013-10-22 03:25:00,
2013-10-21 23:40:00,72.6,71.0,29.96,West,278,0.0,0.0,94,0.00,,,0.00,weatherlink.com 1.10,2013-10-22 03:40:00,
2013-10-21 23:55:00,72.3,71.0,29.96,West,278,0.0,0.0,94,0.00,,,0.00,weatherlink.com 1.10,2013-10-22 03:55:00,